createdAt,value
2023-02-19T00:00:18.906Z,98063.09
2023-02-19T00:02:48.391Z,98059.09
2023-02-19T00:05:17.748Z,98068.56
2023-02-19T00:07:47.052Z,98071.56
2023-02-19T00:10:16.604Z,98072.19
2023-02-19T00:12:45.806Z,98073.22
2023-02-19T00:15:15.307Z,98061.16
2023-02-19T00:17:44.557Z,98057.53
2023-02-19T00:20:14.306Z,98058.78
2023-02-19T00:22:43.649Z,98051.94
2023-02-19T00:25:12.871Z,98058.41
2023-02-19T00:27:42.114Z,98053.41
2023-02-19T00:30:12.043Z,98055.63
2023-02-19T00:32:41.407Z,98057.81
2023-02-19T00:35:13.612Z,98053.41
2023-02-19T00:37:42.866Z,98051.59
2023-02-19T00:40:12.164Z,98056.44
2023-02-19T00:42:42.222Z,98047.00
2023-02-19T00:45:11.600Z,98045.19
2023-02-19T00:47:40.947Z,98040.41
2023-02-19T00:50:10.296Z,98046.22
2023-02-19T00:52:39.654Z,98043.22
2023-02-19T00:55:08.928Z,98038.00
2023-02-19T00:57:38.161Z,98029.56
2023-02-19T01:00:08.443Z,98033.97
2023-02-19T01:02:37.722Z,98037.56
2023-02-19T01:05:07.377Z,98034.13
2023-02-19T01:07:38.097Z,98035.50
2023-02-19T01:10:08.200Z,98036.28
2023-02-19T01:12:37.548Z,98039.69
2023-02-19T01:15:07.351Z,98043.13
2023-02-19T01:17:37.000Z,98044.34
2023-02-19T01:20:06.824Z,98037.13
2023-02-19T01:22:36.043Z,98037.53
2023-02-19T01:25:05.714Z,98039.13
2023-02-19T01:27:35.061Z,98033.91
2023-02-19T01:30:04.771Z,98026.69
2023-02-19T01:32:34.107Z,98031.53
2023-02-19T01:35:04.316Z,98028.31
2023-02-19T01:37:33.704Z,98041.34
2023-02-19T01:40:03.858Z,98030.28
2023-02-19T01:42:33.221Z,98040.31
2023-02-19T01:45:34.450Z,98042.28
2023-02-19T01:48:09.268Z,98044.25
2023-02-19T01:50:47.514Z,98051.09
2023-02-19T01:53:24.115Z,98053.69
2023-02-19T01:55:58.189Z,98057.72
2023-02-19T01:58:34.123Z,98054.25
2023-02-19T02:01:08.817Z,98047.84
2023-02-19T02:03:44.961Z,98056.28
2023-02-19T02:06:24.859Z,98057.44
2023-02-19T02:09:16.813Z,98050.81
2023-02-19T02:11:51.526Z,98048.34
2023-02-19T02:14:30.268Z,98048.53
2023-02-19T02:17:39.073Z,98037.06
2023-02-19T02:20:27.146Z,98048.28
2023-02-19T02:23:22.446Z,98038.03
2023-02-19T02:26:32.442Z,98040.25
2023-02-19T02:29:25.307Z,98039.84
2023-02-19T02:32:01.434Z,98048.09
2023-02-19T02:35:13.550Z,98044.50
2023-02-19T02:37:45.630Z,98040.25
2023-02-19T02:40:17.655Z,98040.25
2023-02-19T02:42:48.119Z,98046.94
2023-02-19T02:45:36.385Z,98048.09
2023-02-19T02:48:55.710Z,98055.13
2023-02-19T02:51:41.494Z,98056.16
2023-02-19T02:54:37.232Z,98050.13
2023-02-19T02:57:14.917Z,98060.38
2023-02-19T02:59:51.663Z,98053.53
2023-02-19T03:02:30.248Z,98048.91
2023-02-19T03:05:37.771Z,98048.28
2023-02-19T03:08:15.667Z,98043.63
2023-02-19T03:10:54.798Z,98042.63
2023-02-19T03:13:53.563Z,98043.22
2023-02-19T03:16:52.408Z,98042.22
2023-02-19T03:19:25.567Z,98033.16
2023-02-19T03:22:14.137Z,98041.22
2023-02-19T03:25:13.800Z,98035.59
2023-02-19T03:27:48.428Z,98030.34
2023-02-19T03:30:28.540Z,98032.97
2023-02-19T03:33:11.013Z,98038.00
2023-02-19T03:35:50.986Z,98025.53
2023-02-19T03:38:34.138Z,98020.66
2023-02-19T03:41:25.684Z,98028.28
2023-02-19T03:44:21.989Z,98042.97
2023-02-19T03:47:07.127Z,98046.00
2023-02-19T03:49:59.372Z,98037.59
2023-02-19T03:52:40.159Z,98043.81
2023-02-19T03:55:30.914Z,98045.84
2023-02-19T03:58:37.718Z,98040.63
2023-02-19T04:01:20.114Z,98046.84
2023-02-19T04:04:27.317Z,98056.72
2023-02-19T04:06:58.680Z,98051.72
2023-02-19T04:09:43.428Z,98046.50
2023-02-19T04:12:19.229Z,98034.03
2023-02-19T04:14:58.875Z,98043.47
2023-02-19T04:17:38.872Z,98039.22
2023-02-19T04:20:12.217Z,98019.91
2023-02-19T04:22:42.623Z,98028.56
2023-02-19T04:25:11.964Z,98048.44
2023-02-19T04:27:45.246Z,98031.16
2023-02-19T04:30:15.286Z,98035.78
2023-02-19T04:32:44.684Z,98033.78
2023-02-19T04:35:14.015Z,98033.19
2023-02-19T04:37:43.497Z,98027.38
2023-02-19T04:40:12.775Z,98035.59
2023-02-19T04:42:42.149Z,98031.97
2023-02-19T04:45:11.416Z,98031.16
2023-02-19T04:47:40.610Z,98026.38
2023-02-19T04:50:10.140Z,98016.34
2023-02-19T04:52:39.462Z,98001.72
2023-02-19T04:55:09.383Z,98019.78
2023-02-19T04:57:38.685Z,98018.41
2023-02-19T05:00:09.337Z,98018.59
2023-02-19T05:02:38.647Z,98019.78
2023-02-19T05:05:08.191Z,98025.63
2023-02-19T05:07:37.498Z,98033.28
2023-02-19T05:10:07.044Z,98028.03
2023-02-19T05:12:36.376Z,98028.66
2023-02-19T05:15:05.926Z,98034.88
2023-02-19T05:17:35.592Z,98030.88
2023-02-19T05:20:05.456Z,98030.06
2023-02-19T05:22:34.767Z,98036.28
2023-02-19T05:25:04.485Z,98043.97
2023-02-19T05:27:33.739Z,98027.50
2023-02-19T05:30:03.074Z,98037.75
2023-02-19T05:32:35.835Z,98027.28
2023-02-19T05:35:05.578Z,98018.03
2023-02-19T05:37:34.838Z,98029.31
2023-02-19T05:40:04.602Z,98050.38
2023-02-19T05:42:33.861Z,98032.72
2023-02-19T05:45:03.161Z,98042.16
2023-02-19T05:47:32.961Z,98038.94
2023-02-19T05:50:02.336Z,98045.97
2023-02-19T05:52:33.249Z,98053.81
2023-02-19T05:55:02.485Z,98042.19
2023-02-19T05:57:32.438Z,98033.38
2023-02-19T06:00:01.740Z,98034.97
2023-02-19T06:02:41.808Z,98035.59
2023-02-19T06:05:11.710Z,98026.16
2023-02-19T06:07:41.739Z,98021.34
2023-02-19T06:10:12.529Z,98025.41
2023-02-19T06:12:42.261Z,98030.63
2023-02-19T06:15:11.609Z,98027.78
2023-02-19T06:17:40.887Z,98021.94
2023-02-19T06:20:10.683Z,98015.13
2023-02-19T06:22:40.067Z,98005.69
2023-02-19T06:25:12.600Z,98010.50
2023-02-19T06:27:42.253Z,98004.66
2023-02-19T06:30:12.627Z,98011.28
2023-02-19T06:32:41.881Z,98005.88
2023-02-19T06:35:11.141Z,98000.84
2023-02-19T06:37:40.424Z,98002.81
2023-02-19T06:40:10.039Z,98009.44
2023-02-19T06:42:39.291Z,98000.00
2023-02-19T06:45:09.017Z,98007.00
2023-02-19T06:47:38.300Z,98014.44
2023-02-19T06:50:07.844Z,98012.03
2023-02-19T06:52:37.253Z,97997.94
2023-02-19T06:55:06.510Z,98005.94
2023-02-19T06:57:35.683Z,98002.31
2023-02-19T07:00:05.558Z,97990.06
2023-02-19T07:02:34.854Z,97997.78
2023-02-19T07:05:04.387Z,97998.78
2023-02-19T07:07:33.659Z,97983.53
2023-02-19T07:10:03.182Z,97986.94
2023-02-19T07:12:33.662Z,97984.53
2023-02-19T07:15:02.927Z,97988.94
2023-02-19T07:17:35.013Z,97995.59
2023-02-19T07:20:04.697Z,97987.34
2023-02-19T07:22:33.936Z,97984.47
2023-02-19T07:25:03.226Z,97991.72
2023-02-19T07:27:32.640Z,97993.13
2023-02-19T07:30:02.638Z,97998.34
2023-02-19T07:32:33.666Z,97991.88
2023-02-19T07:35:02.902Z,97997.09
2023-02-19T07:37:32.503Z,98001.31
2023-02-19T07:40:02.249Z,97995.50
2023-02-19T07:42:33.094Z,98001.97
2023-02-19T07:45:02.519Z,97991.97
2023-02-19T07:47:32.736Z,97991.97
2023-02-19T07:50:02.129Z,97993.78
2023-02-19T07:52:34.393Z,97991.31
2023-02-19T07:55:04.011Z,97999.13
2023-02-19T07:57:33.239Z,97997.84
2023-02-19T08:00:02.796Z,97994.78
2023-02-19T08:03:00.218Z,97991.66
2023-02-19T08:05:33.276Z,97993.16
2023-02-19T08:08:03.057Z,97995.66
2023-02-19T08:10:50.708Z,97965.91
2023-02-19T08:13:22.624Z,97960.94
2023-02-19T08:16:20.040Z,97955.19
2023-02-19T08:18:53.625Z,97960.56
2023-02-19T08:21:22.937Z,97956.38
2023-02-19T08:23:52.165Z,97954.78
2023-02-19T08:26:21.596Z,97951.19
2023-02-19T08:28:50.854Z,97939.19
2023-02-19T08:31:20.202Z,97941.19
2023-02-19T08:33:49.537Z,97940.72
2023-02-19T08:36:18.882Z,97943.94
2023-02-19T08:38:48.330Z,97935.94
2023-02-19T08:41:17.796Z,97939.47
2023-02-19T08:43:47.037Z,97937.53
2023-02-19T08:46:16.634Z,97932.91
2023-02-19T08:48:45.912Z,97932.56
2023-02-19T08:51:15.428Z,97932.19
2023-02-19T08:53:44.957Z,97944.09
2023-02-19T08:56:17.826Z,97947.09
2023-02-19T08:58:47.601Z,97944.59
2023-02-19T09:01:21.339Z,97936.47
2023-02-19T09:03:50.759Z,97929.28
2023-02-19T09:06:21.719Z,97933.59
2023-02-19T09:08:51.023Z,97929.94
2023-02-19T09:11:20.915Z,97918.00
2023-02-19T09:13:50.112Z,97924.97
2023-02-19T09:16:19.416Z,97904.00
2023-02-19T09:18:48.746Z,97921.03
2023-02-19T09:21:18.139Z,97912.94
2023-02-19T09:23:47.376Z,97919.53
2023-02-19T09:26:16.744Z,97898.19
2023-02-19T09:28:47.147Z,97882.84
2023-02-19T09:31:17.349Z,97908.09
2023-02-19T09:33:48.686Z,97900.88
2023-02-19T09:36:18.939Z,97913.75
2023-02-19T09:38:48.232Z,97905.44
2023-02-19T09:41:55.042Z,97906.97
2023-02-19T09:44:29.761Z,97909.00
2023-02-19T09:47:01.994Z,97900.56
2023-02-19T09:49:50.098Z,97902.72
2023-02-19T09:52:32.793Z,97889.13
2023-02-19T09:55:14.997Z,97900.16
2023-02-19T09:57:45.958Z,97892.56
2023-02-19T10:00:27.835Z,97900.56
2023-02-19T10:03:12.180Z,97910.19
2023-02-19T10:05:42.040Z,97885.66
2023-02-19T10:08:20.279Z,97896.09
2023-02-19T10:10:49.608Z,97889.63
2023-02-19T10:13:41.468Z,97884.63
2023-02-19T10:16:31.212Z,97890.16
2023-02-19T10:20:05.546Z,97888.50
2023-02-19T10:22:38.449Z,97886.13
2023-02-19T10:25:13.016Z,97886.72
2023-02-19T10:27:43.665Z,97877.94
2023-02-19T10:30:29.290Z,97866.09
2023-02-19T10:33:00.542Z,97870.09
2023-02-19T10:35:37.284Z,97860.03
2023-02-19T10:38:08.339Z,97854.22
2023-02-19T10:40:46.308Z,97844.50
2023-02-19T10:43:33.182Z,97851.78
2023-02-19T10:46:08.368Z,97842.56
2023-02-19T10:48:56.826Z,97830.00
2023-02-19T10:51:40.076Z,97841.03
2023-02-19T10:54:34.773Z,97831.84
2023-02-19T10:57:16.034Z,97830.91
2023-02-19T11:00:17.110Z,97852.00
2023-02-19T11:02:46.483Z,97837.78
2023-02-19T11:05:20.116Z,97855.66
2023-02-19T11:07:56.839Z,97822.28
2023-02-19T11:10:36.319Z,97816.41
2023-02-19T11:13:14.961Z,97814.25
2023-02-19T11:15:51.032Z,97804.56
2023-02-19T11:18:36.247Z,97797.75
2023-02-19T11:21:07.918Z,97802.94
2023-02-19T11:23:45.517Z,97803.25
2023-02-19T11:26:28.421Z,97808.25
2023-02-19T11:29:16.619Z,97802.75
2023-02-19T11:31:46.486Z,97792.31
2023-02-19T11:34:17.400Z,97791.94
2023-02-19T11:36:47.516Z,97808.34
2023-02-19T11:39:16.704Z,97809.16
2023-02-19T11:42:20.461Z,97790.13
2023-02-19T11:45:11.292Z,97809.72
2023-02-19T11:48:07.951Z,97788.59
2023-02-19T11:50:54.990Z,97801.94
2023-02-19T11:53:37.268Z,97802.28
2023-02-19T11:56:34.096Z,97789.38
2023-02-19T11:59:20.900Z,97813.91
2023-02-19T12:02:21.018Z,97802.53
2023-02-19T12:05:17.661Z,97784.13
2023-02-19T12:08:14.862Z,97775.13
2023-02-19T12:11:02.546Z,97769.09
2023-02-19T12:14:08.759Z,97770.31
2023-02-19T12:17:04.216Z,97756.19
2023-02-19T12:20:14.170Z,97780.47
2023-02-19T12:23:01.444Z,97811.84
2023-02-19T12:25:55.267Z,97824.25
2023-02-19T12:29:09.361Z,97820.09
2023-02-19T12:31:56.891Z,97824.91
2023-02-19T12:34:34.896Z,97832.06
2023-02-19T12:37:15.948Z,97847.59
2023-02-19T12:40:17.808Z,97852.41
2023-02-19T12:43:22.832Z,97855.94
2023-02-19T12:46:06.678Z,97859.00
2023-02-19T12:48:57.139Z,97876.84
2023-02-19T12:51:43.129Z,97893.91
2023-02-19T12:54:34.515Z,97900.84
2023-02-19T12:57:12.450Z,97932.06
2023-02-19T13:00:04.731Z,97924.34
2023-02-19T13:02:49.407Z,97927.88
2023-02-19T13:05:47.474Z,97929.19
2023-02-19T13:08:48.798Z,97924.06
2023-02-19T13:11:35.705Z,97939.34
2023-02-19T13:14:26.346Z,97946.59
2023-02-19T13:17:24.164Z,97949.41
2023-02-19T13:20:05.400Z,97946.78
2023-02-19T13:23:09.547Z,97943.34
2023-02-19T13:26:10.241Z,97950.09
2023-02-19T13:29:00.972Z,97943.09
2023-02-19T13:31:33.029Z,97957.28
2023-02-19T13:34:23.378Z,97942.53
2023-02-19T13:36:54.672Z,97939.50
2023-02-19T13:39:24.245Z,97935.72
2023-02-19T13:41:57.126Z,97939.72
2023-02-19T13:44:31.022Z,97947.75
2023-02-19T13:47:00.928Z,97940.94
2023-02-19T13:49:33.982Z,97948.53
2023-02-19T13:52:29.459Z,97942.97
2023-02-19T13:55:42.712Z,97931.94
2023-02-19T13:58:33.833Z,97935.78
2023-02-19T14:01:05.561Z,97933.16
2023-02-19T14:03:37.824Z,97920.13
2023-02-19T14:06:09.971Z,97921.47
2023-02-19T14:09:00.333Z,97914.34
2023-02-19T14:11:49.498Z,97922.25
2023-02-19T14:14:35.390Z,97918.50
2023-02-19T14:17:10.343Z,97915.94
2023-02-19T14:19:42.635Z,97904.09
2023-02-19T14:22:49.746Z,97899.38
2023-02-19T14:25:28.547Z,97905.88
2023-02-19T14:28:30.383Z,97908.91
2023-02-19T14:31:10.817Z,97904.84
2023-02-19T14:33:47.740Z,97904.75
2023-02-19T14:36:44.192Z,97906.78
2023-02-19T14:39:24.950Z,97908.41
2023-02-19T14:42:02.749Z,97900.63
2023-02-19T14:44:45.712Z,97903.06
2023-02-19T14:47:20.048Z,97911.19
2023-02-19T14:49:52.156Z,97904.63
2023-02-19T14:52:45.862Z,97926.81
2023-02-19T14:55:35.279Z,97926.25
2023-02-19T14:58:13.425Z,97927.53
2023-02-19T15:00:43.927Z,97939.25
2023-02-19T15:03:34.238Z,97922.44
2023-02-19T15:06:08.946Z,97921.78
2023-02-19T15:08:48.573Z,97933.81
2023-02-19T15:11:24.827Z,97953.53
2023-02-19T15:14:07.833Z,97937.34
2023-02-19T15:16:37.501Z,97935.56
2023-02-19T15:19:09.977Z,97951.88
2023-02-19T15:21:46.063Z,97936.50
2023-02-19T15:24:19.062Z,97956.81
2023-02-19T15:26:54.619Z,97939.75
2023-02-19T15:29:27.791Z,97931.59
2023-02-19T15:32:01.145Z,97937.84
2023-02-19T15:34:32.604Z,97946.28
2023-02-19T15:37:07.718Z,97940.47
2023-02-19T15:39:48.380Z,97971.38
2023-02-19T15:42:28.308Z,97959.97
2023-02-19T15:45:07.528Z,97961.38
2023-02-19T15:47:45.633Z,97973.84
2023-02-19T15:50:27.032Z,97974.03
2023-02-19T15:53:09.410Z,97991.66
2023-02-19T15:56:04.083Z,97979.44
2023-02-19T15:58:45.741Z,97996.28
2023-02-19T16:01:27.142Z,97999.13
2023-02-19T16:03:57.340Z,97997.50
2023-02-19T16:06:28.559Z,98003.53
2023-02-19T16:09:05.952Z,97997.53
2023-02-19T16:11:49.747Z,98004.75
2023-02-19T16:14:29.356Z,98019.56
2023-02-19T16:17:09.823Z,98022.19
2023-02-19T16:20:01.355Z,98028.81
2023-02-19T16:22:42.818Z,98036.03
2023-02-19T16:25:28.992Z,98045.66
2023-02-19T16:27:59.375Z,98048.84
2023-02-19T16:30:33.995Z,98063.13
2023-02-19T16:33:48.736Z,98072.94
2023-02-19T16:36:41.578Z,98080.38
2023-02-19T16:39:18.047Z,98088.97
2023-02-19T16:41:47.267Z,98104.41
2023-02-19T16:44:25.255Z,98108.59
2023-02-19T16:46:58.191Z,98114.41
2023-02-19T16:49:27.489Z,98105.16
2023-02-19T16:52:02.634Z,98110.53
2023-02-19T16:54:33.107Z,98112.91
2023-02-19T16:57:02.329Z,98126.72
2023-02-19T16:59:31.559Z,98129.06
2023-02-19T17:02:04.177Z,98141.88
2023-02-19T17:04:34.787Z,98144.06
2023-02-19T17:07:04.222Z,98144.41
2023-02-19T17:09:33.472Z,98160.41
2023-02-19T17:12:02.686Z,98162.75
2023-02-19T17:14:31.973Z,98167.94
2023-02-19T17:17:02.293Z,98184.34
2023-02-19T17:19:31.841Z,98183.91
2023-02-19T17:22:01.243Z,98182.22
2023-02-19T17:24:30.600Z,98193.41
2023-02-19T17:27:00.007Z,98211.00
2023-02-19T17:29:32.970Z,98207.78
2023-02-19T17:32:02.254Z,98202.97
2023-02-19T17:34:31.712Z,98227.09
2023-02-19T17:37:00.970Z,98226.63
2023-02-19T17:39:30.191Z,98222.34
2023-02-19T17:41:59.420Z,98229.47
2023-02-19T17:44:28.629Z,98233.38
2023-02-19T17:46:57.896Z,98234.47
2023-02-19T17:49:27.155Z,98230.38
2023-02-19T17:51:57.040Z,98246.69
2023-02-19T17:54:26.259Z,98251.88
2023-02-19T17:56:55.536Z,98248.22
2023-02-19T17:59:24.785Z,98258.63
2023-02-19T18:01:54.089Z,98250.94
2023-02-19T18:04:23.348Z,98260.09
2023-02-19T18:06:53.982Z,98262.41
2023-02-19T18:09:23.365Z,98268.69
2023-02-19T18:11:52.600Z,98280.25
2023-02-19T18:14:21.854Z,98285.00
2023-02-19T18:16:51.263Z,98296.56
2023-02-19T18:19:22.503Z,98315.88
2023-02-19T18:21:52.397Z,98317.00
2023-02-19T18:24:21.584Z,98327.72
2023-02-19T18:26:50.892Z,98336.22
2023-02-19T18:29:21.966Z,98335.41
2023-02-19T18:31:51.439Z,98344.88
2023-02-19T18:34:20.747Z,98357.50
2023-02-19T18:36:50.159Z,98365.44
2023-02-19T18:39:19.411Z,98371.16
2023-02-19T18:41:50.879Z,98365.03
2023-02-19T18:44:23.241Z,98382.41
2023-02-19T18:46:53.784Z,98384.81
2023-02-19T18:49:24.685Z,98393.41
2023-02-19T18:51:56.456Z,98415.00
2023-02-19T18:54:26.526Z,98408.34
2023-02-19T18:56:56.161Z,98424.41
2023-02-19T18:59:25.433Z,98433.31
2023-02-19T19:01:55.032Z,98423.13
2023-02-19T19:04:24.441Z,98435.00
2023-02-19T19:06:53.675Z,98440.41
2023-02-19T19:09:23.045Z,98451.16
2023-02-19T19:11:52.457Z,98453.75
2023-02-19T19:14:25.178Z,98450.84
2023-02-19T19:16:54.587Z,98463.38
2023-02-19T19:19:24.204Z,98455.28
2023-02-19T19:21:54.805Z,98455.00
2023-02-19T19:24:25.039Z,98470.75
2023-02-19T19:26:54.446Z,98485.84
2023-02-19T19:29:24.016Z,98493.59
2023-02-19T19:31:53.741Z,98491.19
2023-02-19T19:34:23.151Z,98499.97
2023-02-19T19:36:52.481Z,98487.03
2023-02-19T19:39:21.739Z,98492.22
2023-02-19T19:41:57.912Z,98508.75
2023-02-19T19:44:27.194Z,98500.81
2023-02-19T19:46:56.616Z,98518.81
2023-02-19T19:49:25.957Z,98529.84
2023-02-19T19:51:58.584Z,98537.25
2023-02-19T19:54:28.710Z,98543.56
2023-02-19T19:56:57.989Z,98538.22
2023-02-19T19:59:27.273Z,98552.78
2023-02-19T20:01:58.008Z,98549.56
2023-02-19T20:04:27.705Z,98551.47
2023-02-19T20:07:00.198Z,98562.19
2023-02-19T20:09:29.722Z,98558.63
2023-02-19T20:11:59.054Z,98559.22
2023-02-19T20:14:29.052Z,98554.03
2023-02-19T20:16:58.744Z,98562.13
2023-02-19T20:19:28.177Z,98561.94
2023-02-19T20:21:57.418Z,98576.03
2023-02-19T20:24:31.080Z,98574.69
2023-02-19T20:27:02.701Z,98588.28
2023-02-19T20:29:37.102Z,98589.53
2023-02-19T20:32:06.651Z,98593.09
2023-02-19T20:34:38.139Z,98601.03
2023-02-19T20:37:07.778Z,98600.38
2023-02-19T20:39:37.581Z,98602.59
2023-02-19T20:42:07.404Z,98613.59
2023-02-19T20:44:36.896Z,98594.84
2023-02-19T20:47:06.250Z,98609.53
2023-02-19T20:49:35.635Z,98601.44
2023-02-19T20:52:08.376Z,98605.63
2023-02-19T20:54:38.417Z,98622.91
2023-02-19T20:57:08.387Z,98602.38
2023-02-19T20:59:38.786Z,98610.75
2023-02-19T21:02:24.713Z,98610.44
2023-02-19T21:04:54.210Z,98612.38
2023-02-19T21:07:25.843Z,98624.16
2023-02-19T21:09:55.230Z,98623.88
2023-02-19T21:12:24.635Z,98620.00
2023-02-19T21:14:54.060Z,98633.41
2023-02-19T21:17:23.421Z,98623.06
2023-02-19T21:19:52.749Z,98636.19
2023-02-19T21:22:22.738Z,98636.94
2023-02-19T21:24:53.253Z,98641.13
2023-02-19T21:27:22.947Z,98641.75
2023-02-19T21:29:52.260Z,98645.13
2023-02-19T21:32:21.622Z,98650.50
2023-02-19T21:34:51.322Z,98659.06
2023-02-19T21:37:20.621Z,98665.97
2023-02-19T21:39:50.134Z,98667.69
2023-02-19T21:42:19.476Z,98677.22
2023-02-19T21:44:48.797Z,98692.13
2023-02-19T21:47:18.053Z,98695.91
2023-02-19T21:49:47.302Z,98692.63
2023-02-19T21:52:16.614Z,98694.28
2023-02-19T21:54:45.860Z,98704.25
2023-02-19T21:57:15.090Z,98707.16
2023-02-19T21:59:44.389Z,98715.56
2023-02-19T22:02:13.984Z,98700.44
2023-02-19T22:04:43.217Z,98707.22
2023-02-19T22:07:12.631Z,98706.28
2023-02-19T22:09:41.900Z,98713.63
2023-02-19T22:12:11.201Z,98730.34
2023-02-19T22:14:40.452Z,98724.38
2023-02-19T22:17:09.810Z,98733.38
2023-02-19T22:19:39.350Z,98742.06
2023-02-19T22:22:08.567Z,98733.56
2023-02-19T22:24:37.949Z,98733.81
2023-02-19T22:27:07.260Z,98737.56
2023-02-19T22:29:36.615Z,98737.28
2023-02-19T22:32:06.010Z,98752.47
2023-02-19T22:34:40.581Z,98748.09
2023-02-19T22:37:10.639Z,98749.75
2023-02-19T22:39:39.894Z,98748.44
2023-02-19T22:42:09.194Z,98757.97
2023-02-19T22:44:38.617Z,98757.44
2023-02-19T22:47:07.888Z,98763.50
2023-02-19T22:49:41.092Z,98766.00
2023-02-19T22:52:12.792Z,98779.47
2023-02-19T22:54:42.096Z,98770.00
2023-02-19T22:57:11.312Z,98769.41
2023-02-19T22:59:40.574Z,98769.41
2023-02-19T23:02:09.863Z,98770.00
2023-02-19T23:04:39.153Z,98778.72
2023-02-19T23:07:08.863Z,98770.91
2023-02-19T23:09:38.208Z,98790.75
2023-02-19T23:12:11.288Z,98790.25
2023-02-19T23:14:40.492Z,98790.38
2023-02-19T23:17:09.845Z,98790.97
2023-02-19T23:19:39.050Z,98796.00
2023-02-19T23:22:08.584Z,98781.53
2023-02-19T23:24:37.828Z,98792.75
2023-02-19T23:27:07.120Z,98782.28
2023-02-19T23:29:36.413Z,98807.44
2023-02-19T23:32:05.832Z,98805.97
2023-02-19T23:34:35.189Z,98809.91
2023-02-19T23:37:05.569Z,98820.38
2023-02-19T23:39:34.814Z,98824.59
2023-02-19T23:42:04.127Z,98830.19
2023-02-19T23:44:33.653Z,98829.41
2023-02-19T23:47:02.888Z,98832.13
2023-02-19T23:49:32.182Z,98837.53
2023-02-19T23:52:01.469Z,98828.59
2023-02-19T23:54:31.342Z,98829.97
2023-02-19T23:57:00.947Z,98837.81
2023-02-19T23:59:30.394Z,98833.16
